sensor_id;sensor_type;location;lat;lon;timestamp;temperature;humidity
9941;DHT22;5009;50.656;7.188;2022-12-05T05:00:14;2.90;99.90
9941;DHT22;5009;50.656;7.188;2022-12-05T05:02:45;2.80;99.90
9941;DHT22;5009;50.656;7.188;2022-12-05T05:05:14;2.80;99.90
9941;DHT22;5009;50.656;7.188;2022-12-05T05:07:43;2.80;99.90
9941;DHT22;5009;50.656;7.188;2022-12-05T05:10:12;2.90;99.90
9941;DHT22;5009;50.656;7.188;2022-12-05T05:12:38;2.90;99.90
9941;DHT22;5009;50.656;7.188;2022-12-05T05:15:04;2.90;99.90
9941;DHT22;5009;50.656;7.188;2022-12-05T05:17:30;2.90;99.90
9941;DHT22;5009;50.656;7.188;2022-12-05T05:19:55;2.90;99.90
9941;DHT22;5009;50.656;7.188;2022-12-05T05:22:41;2.90;99.90
9941;DHT22;5009;50.656;7.188;2022-12-05T05:25:07;2.90;99.90
9941;DHT22;5009;50.656;7.188;2022-12-05T05:27:32;2.90;99.90
9941;DHT22;5009;50.656;7.188;2022-12-05T05:29:58;2.90;99.90
9941;DHT22;5009;50.656;7.188;2022-12-05T05:32:23;2.90;99.90
9941;DHT22;5009;50.656;7.188;2022-12-05T05:34:49;2.90;99.90
9941;DHT22;5009;50.656;7.188;2022-12-05T05:37:14;2.90;99.90
9941;DHT22;5009;50.656;7.188;2022-12-05T05:39:40;2.90;99.90
9941;DHT22;5009;50.656;7.188;2022-12-05T05:42:05;2.90;99.90
9941;DHT22;5009;50.656;7.188;2022-12-05T05:44:31;2.90;99.90
9941;DHT22;5009;50.656;7.188;2022-12-05T05:46:56;2.90;99.90
9941;DHT22;5009;50.656;7.188;2022-12-05T05:49:22;2.90;99.90
9941;DHT22;5009;50.656;7.188;2022-12-05T05:51:48;2.90;99.90
9941;DHT22;5009;50.656;7.188;2022-12-05T05:54:13;2.80;99.90
9941;DHT22;5009;50.656;7.188;2022-12-05T05:56:39;2.90;99.90
9941;DHT22;5009;50.656;7.188;2022-12-05T05:59:04;2.90;99.90
9941;DHT22;5009;50.656;7.188;2022-12-05T06:01:30;2.90;99.90
9941;DHT22;5009;50.656;7.188;2022-12-05T06:03:56;2.90;99.90
9941;DHT22;5009;50.656;7.188;2022-12-05T06:06:23;2.90;99.90
9941;DHT22;5009;50.656;7.188;2022-12-05T06:08:49;2.90;99.90
9941;DHT22;5009;50.656;7.188;2022-12-05T06:11:20;2.90;99.90
9941;DHT22;5009;50.656;7.188;2022-12-05T06:13:46;2.90;99.90
9941;DHT22;5009;50.656;7.188;2022-12-05T06:16:13;2.90;99.90
9941;DHT22;5009;50.656;7.188;2022-12-05T06:18:39;2.90;99.90
9941;DHT22;5009;50.656;7.188;2022-12-05T06:21:05;2.90;99.90
9941;DHT22;5009;50.656;7.188;2022-12-05T06:23:35;2.90;99.90
9941;DHT22;5009;50.656;7.188;2022-12-05T06:26:01;2.90;99.90
9941;DHT22;5009;50.656;7.188;2022-12-05T06:28:27;2.90;99.90
9941;DHT22;5009;50.656;7.188;2022-12-05T06:30:53;2.90;99.90
9941;DHT22;5009;50.656;7.188;2022-12-05T06:33:19;2.90;99.90
9941;DHT22;5009;50.656;7.188;2022-12-05T06:35:44;2.90;99.90
9941;DHT22;5009;50.656;7.188;2022-12-05T06:38:11;2.90;99.90
9941;DHT22;5009;50.656;7.188;2022-12-05T06:40:41;2.90;99.90
9941;DHT22;5009;50.656;7.188;2022-12-05T06:43:07;2.90;99.90
9941;DHT22;5009;50.656;7.188;2022-12-05T06:45:32;2.90;99.90
9941;DHT22;5009;50.656;7.188;2022-12-05T06:47:58;2.90;99.90
9941;DHT22;5009;50.656;7.188;2022-12-05T06:50:24;2.90;99.90
9941;DHT22;5009;50.656;7.188;2022-12-05T06:52:50;2.90;99.90
9941;DHT22;5009;50.656;7.188;2022-12-05T06:55:15;3.00;99.90
9941;DHT22;5009;50.656;7.188;2022-12-05T06:57:41;3.00;99.90
9941;DHT22;5009;50.656;7.188;2022-12-05T07:00:07;3.00;99.90
9941;DHT22;5009;50.656;7.188;2022-12-05T07:02:52;3.00;99.90
9941;DHT22;5009;50.656;7.188;2022-12-05T07:05:17;3.00;99.90
9941;DHT22;5009;50.656;7.188;2022-12-05T07:07:43;3.00;99.90
9941;DHT22;5009;50.656;7.188;2022-12-05T07:10:09;3.00;99.90
9941;DHT22;5009;50.656;7.188;2022-12-05T07:12:34;2.90;99.90
9941;DHT22;5009;50.656;7.188;2022-12-05T07:15:00;2.90;99.90
9941;DHT22;5009;50.656;7.188;2022-12-05T07:17:26;2.90;99.90
9941;DHT22;5009;50.656;7.188;2022-12-05T07:19:52;2.90;99.90
9941;DHT22;5009;50.656;7.188;2022-12-05T07:22:20;2.80;99.90
9941;DHT22;5009;50.656;7.188;2022-12-05T07:24:46;2.90;99.90
9941;DHT22;5009;50.656;7.188;2022-12-05T07:27:13;2.80;99.90
9941;DHT22;5009;50.656;7.188;2022-12-05T07:29:40;2.90;99.90
9941;DHT22;5009;50.656;7.188;2022-12-05T07:32:05;2.90;99.90
9941;DHT22;5009;50.656;7.188;2022-12-05T07:34:31;3.00;99.90
9941;DHT22;5009;50.656;7.188;2022-12-05T07:36:57;3.00;99.90
9941;DHT22;5009;50.656;7.188;2022-12-05T07:39:22;3.00;99.90
9941;DHT22;5009;50.656;7.188;2022-12-05T07:41:48;3.00;99.90
9941;DHT22;5009;50.656;7.188;2022-12-05T07:44:13;3.00;99.90
9941;DHT22;5009;50.656;7.188;2022-12-05T07:46:39;3.00;99.90
9941;DHT22;5009;50.656;7.188;2022-12-05T07:49:05;3.00;99.90
9941;DHT22;5009;50.656;7.188;2022-12-05T07:51:31;3.00;99.90
9941;DHT22;5009;50.656;7.188;2022-12-05T07:53:58;3.00;99.90
9941;DHT22;5009;50.656;7.188;2022-12-05T07:56:24;3.10;99.90
9941;DHT22;5009;50.656;7.188;2022-12-05T07:58:50;3.10;99.90
9941;DHT22;5009;50.656;7.188;2022-12-05T08:02:42;3.10;99.90
9941;DHT22;5009;50.656;7.188;2022-12-05T08:05:07;3.10;99.90
9941;DHT22;5009;50.656;7.188;2022-12-05T08:07:33;3.20;99.90
9941;DHT22;5009;50.656;7.188;2022-12-05T08:09:58;3.20;99.90
9941;DHT22;5009;50.656;7.188;2022-12-05T08:12:24;3.20;99.90
9941;DHT22;5009;50.656;7.188;2022-12-05T08:14:49;3.20;99.90
9941;DHT22;5009;50.656;7.188;2022-12-05T08:17:15;3.20;99.90
9941;DHT22;5009;50.656;7.188;2022-12-05T08:19:40;3.20;99.90
9941;DHT22;5009;50.656;7.188;2022-12-05T08:22:06;3.00;99.90
9941;DHT22;5009;50.656;7.188;2022-12-05T08:24:32;3.10;99.90
9941;DHT22;5009;50.656;7.188;2022-12-05T08:26:57;3.10;99.90
9941;DHT22;5009;50.656;7.188;2022-12-05T08:29:23;3.20;99.90
9941;DHT22;5009;50.656;7.188;2022-12-05T08:31:50;3.30;99.90
9941;DHT22;5009;50.656;7.188;2022-12-05T08:34:17;3.30;99.90
9941;DHT22;5009;50.656;7.188;2022-12-05T08:36:44;3.30;99.90
9941;DHT22;5009;50.656;7.188;2022-12-05T08:39:12;3.30;99.90
9941;DHT22;5009;50.656;7.188;2022-12-05T08:41:40;3.40;99.90
9941;DHT22;5009;50.656;7.188;2022-12-05T08:44:06;3.40;99.90
9941;DHT22;5009;50.656;7.188;2022-12-05T08:46:35;3.40;99.90
9941;DHT22;5009;50.656;7.188;2022-12-05T08:49:05;3.50;99.90
9941;DHT22;5009;50.656;7.188;2022-12-05T08:52:43;3.50;99.90
9941;DHT22;5009;50.656;7.188;2022-12-05T08:55:09;3.50;99.90
9941;DHT22;5009;50.656;7.188;2022-12-05T08:57:35;3.60;99.90
9941;DHT22;5009;50.656;7.188;2022-12-05T09:00:00;3.60;99.90
9941;DHT22;5009;50.656;7.188;2022-12-05T09:02:26;3.60;99.90
9941;DHT22;5009;50.656;7.188;2022-12-05T09:04:51;3.60;99.90
9941;DHT22;5009;50.656;7.188;2022-12-05T09:07:17;3.70;99.90
9941;DHT22;5009;50.656;7.188;2022-12-05T09:09:42;3.70;99.90
9941;DHT22;5009;50.656;7.188;2022-12-05T09:12:08;3.80;99.90
9941;DHT22;5009;50.656;7.188;2022-12-05T09:14:34;3.80;99.90
9941;DHT22;5009;50.656;7.188;2022-12-05T09:16:59;3.80;99.90
9941;DHT22;5009;50.656;7.188;2022-12-05T09:19:25;3.90;99.90
9941;DHT22;5009;50.656;7.188;2022-12-05T09:21:52;3.90;99.90
9941;DHT22;5009;50.656;7.188;2022-12-05T09:24:18;3.90;99.90
9941;DHT22;5009;50.656;7.188;2022-12-05T09:26:45;4.00;99.90
9941;DHT22;5009;50.656;7.188;2022-12-05T09:29:11;4.00;99.90
9941;DHT22;5009;50.656;7.188;2022-12-05T09:31:37;4.10;99.90
9941;DHT22;5009;50.656;7.188;2022-12-05T09:34:03;4.10;99.90
9941;DHT22;5009;50.656;7.188;2022-12-05T09:36:30;4.10;99.90
9941;DHT22;5009;50.656;7.188;2022-12-05T09:39:01;4.20;99.90
9941;DHT22;5009;50.656;7.188;2022-12-05T09:44:37;4.30;99.90
9941;DHT22;5009;50.656;7.188;2022-12-05T09:47:16;4.30;99.90
9941;DHT22;5009;50.656;7.188;2022-12-05T09:52:35;4.40;99.90
9941;DHT22;5009;50.656;7.188;2022-12-05T09:55:10;4.40;99.90
9941;DHT22;5009;50.656;7.188;2022-12-05T09:57:40;4.40;99.90
9941;DHT22;5009;50.656;7.188;2022-12-05T10:00:09;4.40;99.90
9941;DHT22;5009;50.656;7.188;2022-12-05T10:03:01;4.40;99.90
9941;DHT22;5009;50.656;7.188;2022-12-05T10:05:42;4.40;99.90
9941;DHT22;5009;50.656;7.188;2022-12-05T10:08:37;4.40;99.90
9941;DHT22;5009;50.656;7.188;2022-12-05T10:16:54;4.50;99.90
9941;DHT22;5009;50.656;7.188;2022-12-05T10:19:29;4.50;99.90
9941;DHT22;5009;50.656;7.188;2022-12-05T10:22:00;4.60;99.90
9941;DHT22;5009;50.656;7.188;2022-12-05T10:24:45;4.50;99.90
9941;DHT22;5009;50.656;7.188;2022-12-05T10:27:42;4.60;99.90
9941;DHT22;5009;50.656;7.188;2022-12-05T10:30:18;4.40;99.90
9941;DHT22;5009;50.656;7.188;2022-12-05T10:32:51;4.50;99.90
9941;DHT22;5009;50.656;7.188;2022-12-05T10:35:38;4.50;99.90
9941;DHT22;5009;50.656;7.188;2022-12-05T10:40:50;4.40;99.90
9941;DHT22;5009;50.656;7.188;2022-12-05T10:43:27;4.30;99.90
9941;DHT22;5009;50.656;7.188;2022-12-05T10:45:53;4.30;99.90
9941;DHT22;5009;50.656;7.188;2022-12-05T10:48:20;4.30;99.90
9941;DHT22;5009;50.656;7.188;2022-12-05T10:50:49;4.40;99.90
9941;DHT22;5009;50.656;7.188;2022-12-05T10:53:18;4.30;99.90
9941;DHT22;5009;50.656;7.188;2022-12-05T10:55:46;4.40;99.90
9941;DHT22;5009;50.656;7.188;2022-12-05T10:58:15;4.40;99.90
9941;DHT22;5009;50.656;7.188;2022-12-05T11:02:46;4.50;99.90
9941;DHT22;5009;50.656;7.188;2022-12-05T11:05:12;4.60;99.90
9941;DHT22;5009;50.656;7.188;2022-12-05T11:07:46;4.60;99.90
9941;DHT22;5009;50.656;7.188;2022-12-05T11:10:24;4.70;99.90
9941;DHT22;5009;50.656;7.188;2022-12-05T11:12:50;4.80;99.90
9941;DHT22;5009;50.656;7.188;2022-12-05T11:17:46;4.70;99.90
9941;DHT22;5009;50.656;7.188;2022-12-05T11:22:40;4.80;99.90
9941;DHT22;5009;50.656;7.188;2022-12-05T11:27:56;4.80;99.90
9941;DHT22;5009;50.656;7.188;2022-12-05T11:30:24;4.80;99.90
9941;DHT22;5009;50.656;7.188;2022-12-05T11:35:41;4.80;99.90
9941;DHT22;5009;50.656;7.188;2022-12-05T11:38:10;4.70;99.90
9941;DHT22;5009;50.656;7.188;2022-12-05T11:46:42;4.60;99.90
9941;DHT22;5009;50.656;7.188;2022-12-05T11:49:10;4.70;99.90
9941;DHT22;5009;50.656;7.188;2022-12-05T11:51:47;4.70;99.90
9941;DHT22;5009;50.656;7.188;2022-12-05T11:56:57;4.70;99.90
9941;DHT22;5009;50.656;7.188;2022-12-05T12:07:22;4.70;99.90
9941;DHT22;5009;50.656;7.188;2022-12-05T12:12:30;4.80;99.90
9941;DHT22;5009;50.656;7.188;2022-12-05T12:15:15;4.80;99.90
9941;DHT22;5009;50.656;7.188;2022-12-05T12:17:55;4.80;99.90
9941;DHT22;5009;50.656;7.188;2022-12-05T12:20:47;4.90;99.90
9941;DHT22;5009;50.656;7.188;2022-12-05T12:23:27;4.90;99.90
9941;DHT22;5009;50.656;7.188;2022-12-05T12:31:41;5.20;99.90
9941;DHT22;5009;50.656;7.188;2022-12-05T12:40:21;5.30;99.90
9941;DHT22;5009;50.656;7.188;2022-12-05T12:45:50;5.50;99.90
9941;DHT22;5009;50.656;7.188;2022-12-05T12:51:11;5.50;99.90
9941;DHT22;5009;50.656;7.188;2022-12-05T12:56:29;5.50;99.90
9941;DHT22;5009;50.656;7.188;2022-12-05T12:59:24;5.50;99.90
9941;DHT22;5009;50.656;7.188;2022-12-05T13:04:35;5.50;99.90
9941;DHT22;5009;50.656;7.188;2022-12-05T13:07:10;5.40;99.90
9941;DHT22;5009;50.656;7.188;2022-12-05T13:09:53;5.30;99.90
9941;DHT22;5009;50.656;7.188;2022-12-05T13:12:28;5.30;99.90
9941;DHT22;5009;50.656;7.188;2022-12-05T13:15:04;5.30;99.90
9941;DHT22;5009;50.656;7.188;2022-12-05T13:17:32;5.30;99.90
9941;DHT22;5009;50.656;7.188;2022-12-05T13:19:58;5.30;99.90
9941;DHT22;5009;50.656;7.188;2022-12-05T13:22:26;5.20;99.90
9941;DHT22;5009;50.656;7.188;2022-12-05T13:24:53;5.20;99.90
9941;DHT22;5009;50.656;7.188;2022-12-05T13:27:21;5.20;99.90
9941;DHT22;5009;50.656;7.188;2022-12-05T13:29:58;5.20;99.90
9941;DHT22;5009;50.656;7.188;2022-12-05T13:32:26;5.20;99.90
9941;DHT22;5009;50.656;7.188;2022-12-05T13:34:52;5.20;99.90
9941;DHT22;5009;50.656;7.188;2022-12-05T13:40:24;5.20;99.90
9941;DHT22;5009;50.656;7.188;2022-12-05T13:43:11;5.20;99.90
9941;DHT22;5009;50.656;7.188;2022-12-05T13:45:38;5.20;99.90
9941;DHT22;5009;50.656;7.188;2022-12-05T13:48:21;5.20;99.90
9941;DHT22;5009;50.656;7.188;2022-12-05T13:50:53;5.20;99.90
9941;DHT22;5009;50.656;7.188;2022-12-05T13:53:34;5.20;99.90
9941;DHT22;5009;50.656;7.188;2022-12-05T14:17:58;5.10;99.90
9941;DHT22;5009;50.656;7.188;2022-12-05T14:26:06;5.00;99.90
9941;DHT22;5009;50.656;7.188;2022-12-05T14:34:25;5.00;99.90
9941;DHT22;5009;50.656;7.188;2022-12-05T14:37:00;5.00;99.90
9941;DHT22;5009;50.656;7.188;2022-12-05T14:39:42;4.90;99.90
9941;DHT22;5009;50.656;7.188;2022-12-05T14:42:41;4.90;99.90
9941;DHT22;5009;50.656;7.188;2022-12-05T14:48:01;4.80;99.90
9941;DHT22;5009;50.656;7.188;2022-12-05T14:50:37;4.80;99.90
9941;DHT22;5009;50.656;7.188;2022-12-05T14:53:35;4.90;99.90
9941;DHT22;5009;50.656;7.188;2022-12-05T14:59:00;4.80;99.90
9941;DHT22;5009;50.656;7.188;2022-12-05T15:01:56;4.80;99.90
9941;DHT22;5009;50.656;7.188;2022-12-05T15:04:41;4.80;99.90
9941;DHT22;5009;50.656;7.188;2022-12-05T15:07:15;4.80;99.90
9941;DHT22;5009;50.656;7.188;2022-12-05T15:09:59;4.80;99.90
9941;DHT22;5009;50.656;7.188;2022-12-05T15:20:49;4.70;99.90
9941;DHT22;5009;50.656;7.188;2022-12-05T15:23:43;4.70;99.90
9941;DHT22;5009;50.656;7.188;2022-12-05T15:26:26;4.70;99.90
9941;DHT22;5009;50.656;7.188;2022-12-05T15:29:08;4.70;99.90
9941;DHT22;5009;50.656;7.188;2022-12-05T15:31:58;4.70;99.90
9941;DHT22;5009;50.656;7.188;2022-12-05T15:35:00;4.70;99.90
9941;DHT22;5009;50.656;7.188;2022-12-05T15:40:45;4.70;99.90
9941;DHT22;5009;50.656;7.188;2022-12-05T15:43:32;4.70;99.90
9941;DHT22;5009;50.656;7.188;2022-12-05T15:46:21;4.60;99.90
9941;DHT22;5009;50.656;7.188;2022-12-05T15:48:57;4.60;99.90
9941;DHT22;5009;50.656;7.188;2022-12-05T15:51:34;4.60;99.90
9941;DHT22;5009;50.656;7.188;2022-12-05T15:54:10;4.60;99.90
9941;DHT22;5009;50.656;7.188;2022-12-05T15:56:49;4.60;99.90
9941;DHT22;5009;50.656;7.188;2022-12-05T15:59:17;4.60;99.90
9941;DHT22;5009;50.656;7.188;2022-12-05T16:01:50;4.60;99.90
9941;DHT22;5009;50.656;7.188;2022-12-05T16:04:28;4.50;99.90
9941;DHT22;5009;50.656;7.188;2022-12-05T16:06:57;4.50;99.90
9941;DHT22;5009;50.656;7.188;2022-12-05T16:09:27;4.60;99.90
9941;DHT22;5009;50.656;7.188;2022-12-05T16:12:00;4.50;99.90
9941;DHT22;5009;50.656;7.188;2022-12-05T16:14:35;4.50;99.90
9941;DHT22;5009;50.656;7.188;2022-12-05T16:17:02;4.50;99.90
9941;DHT22;5009;50.656;7.188;2022-12-05T16:19:29;4.50;99.90
9941;DHT22;5009;50.656;7.188;2022-12-05T16:24:31;4.50;99.90
9941;DHT22;5009;50.656;7.188;2022-12-05T16:27:15;4.50;99.90
9941;DHT22;5009;50.656;7.188;2022-12-05T16:29:42;4.50;99.90
9941;DHT22;5009;50.656;7.188;2022-12-05T16:32:40;4.50;99.90
9941;DHT22;5009;50.656;7.188;2022-12-05T16:35:29;4.50;99.90
9941;DHT22;5009;50.656;7.188;2022-12-05T16:38:10;4.50;99.90
9941;DHT22;5009;50.656;7.188;2022-12-05T16:48:35;4.50;99.90
9941;DHT22;5009;50.656;7.188;2022-12-05T16:56:24;4.40;99.90
9941;DHT22;5009;50.656;7.188;2022-12-05T16:58:50;4.50;99.90
9941;DHT22;5009;50.656;7.188;2022-12-05T17:01:22;4.40;99.90
9941;DHT22;5009;50.656;7.188;2022-12-05T17:03:48;4.40;99.90
9941;DHT22;5009;50.656;7.188;2022-12-05T17:06:14;4.50;99.90
9941;DHT22;5009;50.656;7.188;2022-12-05T17:08:40;4.40;99.90
9941;DHT22;5009;50.656;7.188;2022-12-05T17:11:19;4.50;99.90
9941;DHT22;5009;50.656;7.188;2022-12-05T17:13:46;4.50;99.90
9941;DHT22;5009;50.656;7.188;2022-12-05T17:16:14;4.50;99.90
9941;DHT22;5009;50.656;7.188;2022-12-05T17:18:39;4.50;99.90
9941;DHT22;5009;50.656;7.188;2022-12-05T17:21:05;4.50;99.90
9941;DHT22;5009;50.656;7.188;2022-12-05T17:23:31;4.50;99.90
9941;DHT22;5009;50.656;7.188;2022-12-05T17:25:57;4.40;99.90
9941;DHT22;5009;50.656;7.188;2022-12-05T17:28:23;4.50;99.90
9941;DHT22;5009;50.656;7.188;2022-12-05T17:30:49;4.40;99.90
9941;DHT22;5009;50.656;7.188;2022-12-05T17:33:17;4.40;99.90
9941;DHT22;5009;50.656;7.188;2022-12-05T17:35:43;4.50;99.90
9941;DHT22;5009;50.656;7.188;2022-12-05T17:38:09;4.40;99.90
9941;DHT22;5009;50.656;7.188;2022-12-05T17:40:35;4.40;99.90
9941;DHT22;5009;50.656;7.188;2022-12-05T17:43:02;4.50;99.90
9941;DHT22;5009;50.656;7.188;2022-12-05T17:45:27;4.40;99.90
9941;DHT22;5009;50.656;7.188;2022-12-05T17:47:54;4.40;99.90
9941;DHT22;5009;50.656;7.188;2022-12-05T17:50:24;4.40;99.90
9941;DHT22;5009;50.656;7.188;2022-12-05T17:52:53;4.40;99.90
9941;DHT22;5009;50.656;7.188;2022-12-05T17:55:22;4.40;99.90
9941;DHT22;5009;50.656;7.188;2022-12-05T17:57:48;4.40;99.90
9941;DHT22;5009;50.656;7.188;2022-12-05T18:00:15;4.40;99.90
9941;DHT22;5009;50.656;7.188;2022-12-05T18:02:43;4.40;99.90
9941;DHT22;5009;50.656;7.188;2022-12-05T18:05:13;4.40;99.90
9941;DHT22;5009;50.656;7.188;2022-12-05T18:07:40;4.40;99.90
9941;DHT22;5009;50.656;7.188;2022-12-05T18:10:08;4.30;99.90
9941;DHT22;5009;50.656;7.188;2022-12-05T18:12:34;4.30;99.90
9941;DHT22;5009;50.656;7.188;2022-12-05T18:15:00;4.30;99.90
9941;DHT22;5009;50.656;7.188;2022-12-05T18:17:25;4.30;99.90
9941;DHT22;5009;50.656;7.188;2022-12-05T18:19:52;4.30;99.90
9941;DHT22;5009;50.656;7.188;2022-12-05T18:22:23;4.20;99.90
9941;DHT22;5009;50.656;7.188;2022-12-05T18:24:50;4.20;99.90
9941;DHT22;5009;50.656;7.188;2022-12-05T18:27:16;4.20;99.90
9941;DHT22;5009;50.656;7.188;2022-12-05T18:29:41;4.20;99.90
9941;DHT22;5009;50.656;7.188;2022-12-05T18:32:07;4.20;99.90
9941;DHT22;5009;50.656;7.188;2022-12-05T18:34:32;4.20;99.90
9941;DHT22;5009;50.656;7.188;2022-12-05T18:36:58;4.20;99.90
9941;DHT22;5009;50.656;7.188;2022-12-05T18:39:24;4.20;99.90
9941;DHT22;5009;50.656;7.188;2022-12-05T18:41:49;4.20;99.90
9941;DHT22;5009;50.656;7.188;2022-12-05T18:44:15;4.20;99.90
9941;DHT22;5009;50.656;7.188;2022-12-05T18:46:40;4.20;99.90
9941;DHT22;5009;50.656;7.188;2022-12-05T18:49:06;4.10;99.90
9941;DHT22;5009;50.656;7.188;2022-12-05T18:51:32;4.10;99.90
9941;DHT22;5009;50.656;7.188;2022-12-05T18:53:57;4.10;99.90
9941;DHT22;5009;50.656;7.188;2022-12-05T18:56:28;4.10;99.90
9941;DHT22;5009;50.656;7.188;2022-12-05T18:59:00;4.10;99.90
9941;DHT22;5009;50.656;7.188;2022-12-05T19:01:30;4.10;99.90
9941;DHT22;5009;50.656;7.188;2022-12-05T19:03:57;4.10;99.90
9941;DHT22;5009;50.656;7.188;2022-12-05T19:06:25;4.10;99.90
9941;DHT22;5009;50.656;7.188;2022-12-05T19:08:56;4.10;99.90
9941;DHT22;5009;50.656;7.188;2022-12-05T19:11:22;4.10;99.90
9941;DHT22;5009;50.656;7.188;2022-12-05T19:13:48;4.00;99.90
9941;DHT22;5009;50.656;7.188;2022-12-05T19:16:14;4.10;99.90
9941;DHT22;5009;50.656;7.188;2022-12-05T19:18:44;4.10;99.90
9941;DHT22;5009;50.656;7.188;2022-12-05T19:21:11;4.00;99.90
9941;DHT22;5009;50.656;7.188;2022-12-05T19:23:36;4.00;99.90
9941;DHT22;5009;50.656;7.188;2022-12-05T19:26:04;4.00;99.90
9941;DHT22;5009;50.656;7.188;2022-12-05T19:28:34;4.00;99.90
9941;DHT22;5009;50.656;7.188;2022-12-05T19:31:08;4.00;99.90
9941;DHT22;5009;50.656;7.188;2022-12-05T19:33:37;4.00;99.90
9941;DHT22;5009;50.656;7.188;2022-12-05T19:36:14;4.00;99.90
9941;DHT22;5009;50.656;7.188;2022-12-05T19:38:42;4.00;99.90
9941;DHT22;5009;50.656;7.188;2022-12-05T19:41:11;4.00;99.90
9941;DHT22;5009;50.656;7.188;2022-12-05T19:43:37;4.00;99.90
9941;DHT22;5009;50.656;7.188;2022-12-05T19:46:10;3.90;99.90
9941;DHT22;5009;50.656;7.188;2022-12-05T19:48:36;4.00;99.90
9941;DHT22;5009;50.656;7.188;2022-12-05T19:51:03;3.90;99.90
9941;DHT22;5009;50.656;7.188;2022-12-05T19:53:30;3.90;99.90
9941;DHT22;5009;50.656;7.188;2022-12-05T19:56:06;3.90;99.90
9941;DHT22;5009;50.656;7.188;2022-12-05T19:58:34;4.00;99.90
9941;DHT22;5009;50.656;7.188;2022-12-05T20:01:23;3.90;99.90
9941;DHT22;5009;50.656;7.188;2022-12-05T20:03:51;3.90;99.90
9941;DHT22;5009;50.656;7.188;2022-12-05T20:06:19;3.90;99.90
9941;DHT22;5009;50.656;7.188;2022-12-05T20:08:45;3.90;99.90
9941;DHT22;5009;50.656;7.188;2022-12-05T20:11:20;3.90;99.90
9941;DHT22;5009;50.656;7.188;2022-12-05T20:13:46;3.80;99.90
9941;DHT22;5009;50.656;7.188;2022-12-05T20:16:12;3.90;99.90
9941;DHT22;5009;50.656;7.188;2022-12-05T20:18:39;3.80;99.90
9941;DHT22;5009;50.656;7.188;2022-12-05T20:21:07;3.80;99.90
9941;DHT22;5009;50.656;7.188;2022-12-05T20:23:33;3.80;99.90
9941;DHT22;5009;50.656;7.188;2022-12-05T20:26:10;3.80;99.90
9941;DHT22;5009;50.656;7.188;2022-12-05T20:28:37;3.80;99.90
9941;DHT22;5009;50.656;7.188;2022-12-05T20:31:22;3.70;99.90
9941;DHT22;5009;50.656;7.188;2022-12-05T20:33:49;3.70;99.90
9941;DHT22;5009;50.656;7.188;2022-12-05T20:36:21;3.70;99.90
9941;DHT22;5009;50.656;7.188;2022-12-05T20:38:47;3.70;99.90
9941;DHT22;5009;50.656;7.188;2022-12-05T20:41:17;3.70;99.90
9941;DHT22;5009;50.656;7.188;2022-12-05T20:43:44;3.70;99.90
9941;DHT22;5009;50.656;7.188;2022-12-05T20:46:16;3.80;99.90
9941;DHT22;5009;50.656;7.188;2022-12-05T20:48:42;3.80;99.90
9941;DHT22;5009;50.656;7.188;2022-12-05T20:51:46;3.80;99.90
9941;DHT22;5009;50.656;7.188;2022-12-05T20:54:05;3.80;99.90
9941;DHT22;5009;50.656;7.188;2022-12-05T20:56:32;3.80;99.90
9941;DHT22;5009;50.656;7.188;2022-12-05T20:59:01;3.80;99.90
9941;DHT22;5009;50.656;7.188;2022-12-05T21:01:29;3.80;99.90
9941;DHT22;5009;50.656;7.188;2022-12-05T21:03:55;3.80;99.90
9941;DHT22;5009;50.656;7.188;2022-12-05T21:06:24;3.80;99.90
9941;DHT22;5009;50.656;7.188;2022-12-05T21:08:50;3.80;99.90
9941;DHT22;5009;50.656;7.188;2022-12-05T21:11:16;3.80;99.90
9941;DHT22;5009;50.656;7.188;2022-12-05T21:13:42;3.70;99.90
9941;DHT22;5009;50.656;7.188;2022-12-05T21:16:13;3.80;99.90
9941;DHT22;5009;50.656;7.188;2022-12-05T21:18:39;3.80;99.90
9941;DHT22;5009;50.656;7.188;2022-12-05T21:21:07;3.80;99.90
9941;DHT22;5009;50.656;7.188;2022-12-05T21:23:33;3.80;99.90
9941;DHT22;5009;50.656;7.188;2022-12-05T21:26:02;3.80;99.90
9941;DHT22;5009;50.656;7.188;2022-12-05T21:28:29;3.70;99.90
9941;DHT22;5009;50.656;7.188;2022-12-05T21:31:07;3.70;99.90
9941;DHT22;5009;50.656;7.188;2022-12-05T21:33:33;3.80;99.90
9941;DHT22;5009;50.656;7.188;2022-12-05T21:35:58;3.80;99.90
9941;DHT22;5009;50.656;7.188;2022-12-05T21:38:24;3.80;99.90
9941;DHT22;5009;50.656;7.188;2022-12-05T21:40:49;3.80;99.90
9941;DHT22;5009;50.656;7.188;2022-12-05T21:43:15;3.80;99.90
9941;DHT22;5009;50.656;7.188;2022-12-05T21:45:41;3.80;99.90
9941;DHT22;5009;50.656;7.188;2022-12-05T21:48:07;3.80;99.90
9941;DHT22;5009;50.656;7.188;2022-12-05T21:50:32;3.80;99.90
9941;DHT22;5009;50.656;7.188;2022-12-05T21:52:58;3.80;99.90
9941;DHT22;5009;50.656;7.188;2022-12-05T21:55:24;3.80;99.90
9941;DHT22;5009;50.656;7.188;2022-12-05T21:57:49;3.80;99.90
